sensor_id;sensor_type;location;lat;lon;timestamp;P1;durP1;ratioP1;P2;durP2;ratioP2
35602;SDS011;21725;50.836;4.368;2022-09-01T00:01:10;7.97;;;6.82;;
35602;SDS011;21725;50.836;4.368;2022-09-01T00:03:39;17.50;;;14.98;;
35602;SDS011;21725;50.836;4.368;2022-09-01T00:06:05;20.92;;;15.45;;
35602;SDS011;21725;50.836;4.368;2022-09-01T00:08:35;21.35;;;14.98;;
35602;SDS011;21725;50.836;4.368;2022-09-01T00:11:01;20.63;;;14.57;;
35602;SDS011;21725;50.836;4.368;2022-09-01T00:13:26;19.38;;;12.73;;
35602;SDS011;21725;50.836;4.368;2022-09-01T00:15:57;14.80;;;9.85;;
35602;SDS011;21725;50.836;4.368;2022-09-01T00:18:23;11.50;;;7.05;;
35602;SDS011;21725;50.836;4.368;2022-09-01T00:20:49;12.57;;;6.47;;
35602;SDS011;21725;50.836;4.368;2022-09-01T00:23:15;12.23;;;5.00;;
35602;SDS011;21725;50.836;4.368;2022-09-01T00:25:40;11.07;;;6.22;;
35602;SDS011;21725;50.836;4.368;2022-09-01T00:28:06;12.68;;;4.80;;
35602;SDS011;21725;50.836;4.368;2022-09-01T00:30:32;11.65;;;4.68;;
35602;SDS011;21725;50.836;4.368;2022-09-01T00:32:58;6.55;;;3.90;;
35602;SDS011;21725;50.836;4.368;2022-09-01T00:35:23;13.77;;;4.75;;
35602;SDS011;21725;50.836;4.368;2022-09-01T00:37:49;9.35;;;4.93;;
35602;SDS011;21725;50.836;4.368;2022-09-01T00:40:15;11.32;;;4.53;;
35602;SDS011;21725;50.836;4.368;2022-09-01T00:42:42;10.30;;;4.60;;
35602;SDS011;21725;50.836;4.368;2022-09-01T00:45:09;11.30;;;4.43;;
35602;SDS011;21725;50.836;4.368;2022-09-01T00:47:35;14.10;;;4.95;;
35602;SDS011;21725;50.836;4.368;2022-09-01T00:50:03;8.23;;;3.83;;
35602;SDS011;21725;50.836;4.368;2022-09-01T00:52:38;8.40;;;4.10;;
35602;SDS011;21725;50.836;4.368;2022-09-01T00:55:23;10.18;;;3.88;;
35602;SDS011;21725;50.836;4.368;2022-09-01T00:57:55;6.88;;;3.55;;
35602;SDS011;21725;50.836;4.368;2022-09-01T01:00:25;8.18;;;4.55;;
35602;SDS011;21725;50.836;4.368;2022-09-01T01:02:55;15.55;;;5.88;;
35602;SDS011;21725;50.836;4.368;2022-09-01T01:05:21;7.68;;;4.78;;
35602;SDS011;21725;50.836;4.368;2022-09-01T01:07:52;9.02;;;5.22;;
35602;SDS011;21725;50.836;4.368;2022-09-01T01:10:20;9.40;;;4.70;;
35602;SDS011;21725;50.836;4.368;2022-09-01T01:12:47;12.18;;;4.78;;
35602;SDS011;21725;50.836;4.368;2022-09-01T01:15:16;10.50;;;4.90;;
35602;SDS011;21725;50.836;4.368;2022-09-01T01:17:43;10.30;;;4.80;;
35602;SDS011;21725;50.836;4.368;2022-09-01T01:20:09;7.85;;;4.55;;
35602;SDS011;21725;50.836;4.368;2022-09-01T01:22:59;13.95;;;5.05;;
35602;SDS011;21725;50.836;4.368;2022-09-01T01:25:48;8.63;;;4.05;;
35602;SDS011;21725;50.836;4.368;2022-09-01T01:28:21;10.68;;;5.50;;
35602;SDS011;21725;50.836;4.368;2022-09-01T01:30:52;10.63;;;5.03;;
35602;SDS011;21725;50.836;4.368;2022-09-01T01:33:22;13.25;;;5.25;;
35602;SDS011;21725;50.836;4.368;2022-09-01T01:35:54;12.88;;;6.10;;
35602;SDS011;21725;50.836;4.368;2022-09-01T01:38:21;11.63;;;4.90;;
35602;SDS011;21725;50.836;4.368;2022-09-01T01:40:49;14.30;;;5.35;;
35602;SDS011;21725;50.836;4.368;2022-09-01T01:43:17;13.43;;;5.43;;
35602;SDS011;21725;50.836;4.368;2022-09-01T01:48:18;10.43;;;4.75;;
35602;SDS011;21725;50.836;4.368;2022-09-01T01:50:48;15.30;;;5.82;;
35602;SDS011;21725;50.836;4.368;2022-09-01T01:53:14;9.27;;;5.00;;
35602;SDS011;21725;50.836;4.368;2022-09-01T01:55:44;10.25;;;4.93;;
35602;SDS011;21725;50.836;4.368;2022-09-01T02:00:39;12.90;;;5.78;;
35602;SDS011;21725;50.836;4.368;2022-09-01T02:05:37;13.48;;;5.03;;
35602;SDS011;21725;50.836;4.368;2022-09-01T02:08:07;8.55;;;4.88;;
35602;SDS011;21725;50.836;4.368;2022-09-01T02:10:39;9.57;;;5.60;;
35602;SDS011;21725;50.836;4.368;2022-09-01T02:13:10;16.30;;;5.25;;
35602;SDS011;21725;50.836;4.368;2022-09-01T02:15:42;14.20;;;5.53;;
35602;SDS011;21725;50.836;4.368;2022-09-01T02:18:13;8.52;;;5.22;;
35602;SDS011;21725;50.836;4.368;2022-09-01T02:20:42;8.27;;;5.18;;
35602;SDS011;21725;50.836;4.368;2022-09-01T02:23:09;10.98;;;4.88;;
35602;SDS011;21725;50.836;4.368;2022-09-01T02:25:39;9.55;;;5.30;;
35602;SDS011;21725;50.836;4.368;2022-09-01T02:28:08;11.50;;;4.88;;
35602;SDS011;21725;50.836;4.368;2022-09-01T02:30:40;10.30;;;4.97;;
35602;SDS011;21725;50.836;4.368;2022-09-01T02:35:35;9.65;;;5.13;;
35602;SDS011;21725;50.836;4.368;2022-09-01T02:38:02;10.70;;;6.20;;
35602;SDS011;21725;50.836;4.368;2022-09-01T02:40:29;12.27;;;5.55;;
35602;SDS011;21725;50.836;4.368;2022-09-01T02:42:59;13.27;;;6.57;;
35602;SDS011;21725;50.836;4.368;2022-09-01T02:45:26;11.38;;;5.88;;
35602;SDS011;21725;50.836;4.368;2022-09-01T02:47:53;14.30;;;5.43;;
35602;SDS011;21725;50.836;4.368;2022-09-01T02:50:21;12.73;;;5.90;;
35602;SDS011;21725;50.836;4.368;2022-09-01T02:52:48;11.50;;;6.32;;
35602;SDS011;21725;50.836;4.368;2022-09-01T02:55:16;12.10;;;6.00;;
35602;SDS011;21725;50.836;4.368;2022-09-01T02:57:46;7.70;;;4.88;;
35602;SDS011;21725;50.836;4.368;2022-09-01T03:00:21;11.63;;;5.25;;
35602;SDS011;21725;50.836;4.368;2022-09-01T03:02:53;10.90;;;5.50;;
35602;SDS011;21725;50.836;4.368;2022-09-01T03:05:21;15.38;;;5.32;;
35602;SDS011;21725;50.836;4.368;2022-09-01T03:07:53;11.05;;;5.85;;
35602;SDS011;21725;50.836;4.368;2022-09-01T03:10:34;10.13;;;5.22;;
35602;SDS011;21725;50.836;4.368;2022-09-01T03:13:03;13.38;;;5.60;;
35602;SDS011;21725;50.836;4.368;2022-09-01T03:15:31;9.63;;;5.60;;
35602;SDS011;21725;50.836;4.368;2022-09-01T03:17:58;10.15;;;5.40;;
35602;SDS011;21725;50.836;4.368;2022-09-01T03:20:27;12.38;;;6.25;;
35602;SDS011;21725;50.836;4.368;2022-09-01T03:22:55;15.88;;;6.07;;
35602;SDS011;21725;50.836;4.368;2022-09-01T03:25:22;11.10;;;5.53;;
35602;SDS011;21725;50.836;4.368;2022-09-01T03:27:49;11.63;;;6.22;;
35602;SDS011;21725;50.836;4.368;2022-09-01T03:30:17;7.15;;;4.60;;
35602;SDS011;21725;50.836;4.368;2022-09-01T03:32:44;10.80;;;5.30;;
35602;SDS011;21725;50.836;4.368;2022-09-01T03:35:12;11.75;;;5.95;;
35602;SDS011;21725;50.836;4.368;2022-09-01T03:37:38;14.60;;;5.05;;
35602;SDS011;21725;50.836;4.368;2022-09-01T03:40:05;12.32;;;5.40;;
35602;SDS011;21725;50.836;4.368;2022-09-01T03:42:33;10.57;;;5.80;;
35602;SDS011;21725;50.836;4.368;2022-09-01T03:45:00;13.13;;;5.78;;
35602;SDS011;21725;50.836;4.368;2022-09-01T03:47:33;9.63;;;4.93;;
35602;SDS011;21725;50.836;4.368;2022-09-01T03:50:05;12.75;;;4.82;;
35602;SDS011;21725;50.836;4.368;2022-09-01T03:52:35;12.20;;;6.22;;
35602;SDS011;21725;50.836;4.368;2022-09-01T03:55:03;9.98;;;5.80;;
35602;SDS011;21725;50.836;4.368;2022-09-01T03:57:29;13.90;;;6.22;;
35602;SDS011;21725;50.836;4.368;2022-09-01T03:59:55;11.00;;;5.18;;
35602;SDS011;21725;50.836;4.368;2022-09-01T04:02:21;8.65;;;5.63;;
35602;SDS011;21725;50.836;4.368;2022-09-01T04:04:47;14.82;;;5.75;;
35602;SDS011;21725;50.836;4.368;2022-09-01T04:29:24;10.73;;;5.72;;
35602;SDS011;21725;50.836;4.368;2022-09-01T04:31:54;11.13;;;6.78;;
35602;SDS011;21725;50.836;4.368;2022-09-01T04:36:48;14.20;;;6.30;;
35602;SDS011;21725;50.836;4.368;2022-09-01T04:39:18;12.10;;;5.78;;
35602;SDS011;21725;50.836;4.368;2022-09-01T04:41:44;17.98;;;6.13;;
35602;SDS011;21725;50.836;4.368;2022-09-01T04:44:10;14.85;;;5.75;;
35602;SDS011;21725;50.836;4.368;2022-09-01T04:46:37;15.63;;;6.07;;
35602;SDS011;21725;50.836;4.368;2022-09-01T04:49:06;15.20;;;6.43;;
35602;SDS011;21725;50.836;4.368;2022-09-01T04:51:38;7.77;;;4.43;;
35602;SDS011;21725;50.836;4.368;2022-09-01T04:54:06;12.52;;;6.57;;
35602;SDS011;21725;50.836;4.368;2022-09-01T04:56:36;12.48;;;6.75;;
35602;SDS011;21725;50.836;4.368;2022-09-01T04:59:02;11.57;;;6.43;;
35602;SDS011;21725;50.836;4.368;2022-09-01T05:01:31;11.15;;;6.28;;
35602;SDS011;21725;50.836;4.368;2022-09-01T05:04:14;14.45;;;6.07;;
35602;SDS011;21725;50.836;4.368;2022-09-01T05:06:43;11.15;;;5.47;;
35602;SDS011;21725;50.836;4.368;2022-09-01T05:09:11;14.13;;;6.70;;
35602;SDS011;21725;50.836;4.368;2022-09-01T05:11:39;13.25;;;6.40;;
35602;SDS011;21725;50.836;4.368;2022-09-01T05:14:09;16.67;;;5.90;;
35602;SDS011;21725;50.836;4.368;2022-09-01T05:16:36;13.80;;;6.05;;
35602;SDS011;21725;50.836;4.368;2022-09-01T05:19:05;10.97;;;6.23;;
35602;SDS011;21725;50.836;4.368;2022-09-01T05:21:38;12.50;;;6.50;;
35602;SDS011;21725;50.836;4.368;2022-09-01T05:24:07;14.35;;;6.47;;
35602;SDS011;21725;50.836;4.368;2022-09-01T05:26:34;14.10;;;6.10;;
35602;SDS011;21725;50.836;4.368;2022-09-01T05:29:05;13.25;;;6.68;;
35602;SDS011;21725;50.836;4.368;2022-09-01T05:31:37;12.18;;;5.93;;
35602;SDS011;21725;50.836;4.368;2022-09-01T05:34:04;9.75;;;4.85;;
35602;SDS011;21725;50.836;4.368;2022-09-01T05:36:35;10.27;;;5.03;;
35602;SDS011;21725;50.836;4.368;2022-09-01T05:39:11;10.55;;;5.50;;
35602;SDS011;21725;50.836;4.368;2022-09-01T05:41:39;13.25;;;5.72;;
35602;SDS011;21725;50.836;4.368;2022-09-01T05:44:06;16.00;;;5.90;;
35602;SDS011;21725;50.836;4.368;2022-09-01T05:46:33;13.75;;;5.40;;
35602;SDS011;21725;50.836;4.368;2022-09-01T05:49:01;11.13;;;5.60;;
35602;SDS011;21725;50.836;4.368;2022-09-01T05:51:27;9.90;;;5.70;;
35602;SDS011;21725;50.836;4.368;2022-09-01T05:53:55;14.57;;;6.82;;
35602;SDS011;21725;50.836;4.368;2022-09-01T05:56:23;12.88;;;5.38;;
35602;SDS011;21725;50.836;4.368;2022-09-01T05:58:53;9.75;;;4.75;;
35602;SDS011;21725;50.836;4.368;2022-09-01T06:01:21;13.30;;;6.35;;
35602;SDS011;21725;50.836;4.368;2022-09-01T06:03:50;12.93;;;5.07;;
35602;SDS011;21725;50.836;4.368;2022-09-01T06:06:28;12.05;;;4.60;;
35602;SDS011;21725;50.836;4.368;2022-09-01T06:08:56;9.73;;;5.23;;
35602;SDS011;21725;50.836;4.368;2022-09-01T06:11:23;14.20;;;5.57;;
35602;SDS011;21725;50.836;4.368;2022-09-01T06:13:50;13.65;;;5.30;;
35602;SDS011;21725;50.836;4.368;2022-09-01T06:18:46;9.57;;;5.18;;
35602;SDS011;21725;50.836;4.368;2022-09-01T06:21:11;9.48;;;5.20;;
35602;SDS011;21725;50.836;4.368;2022-09-01T06:23:41;10.93;;;4.75;;
35602;SDS011;21725;50.836;4.368;2022-09-01T06:26:22;11.13;;;5.15;;
35602;SDS011;21725;50.836;4.368;2022-09-01T06:28:51;7.13;;;4.18;;
35602;SDS011;21725;50.836;4.368;2022-09-01T06:31:22;8.95;;;5.28;;
35602;SDS011;21725;50.836;4.368;2022-09-01T06:33:53;11.57;;;5.35;;
35602;SDS011;21725;50.836;4.368;2022-09-01T06:36:20;14.80;;;5.45;;
35602;SDS011;21725;50.836;4.368;2022-09-01T06:38:48;9.48;;;4.28;;
35602;SDS011;21725;50.836;4.368;2022-09-01T06:43:46;11.20;;;4.90;;
35602;SDS011;21725;50.836;4.368;2022-09-01T06:46:14;10.23;;;5.30;;
35602;SDS011;21725;50.836;4.368;2022-09-01T06:48:40;11.07;;;5.88;;
35602;SDS011;21725;50.836;4.368;2022-09-01T06:51:16;14.05;;;5.18;;
35602;SDS011;21725;50.836;4.368;2022-09-01T06:53:47;13.07;;;5.32;;
35602;SDS011;21725;50.836;4.368;2022-09-01T06:56:23;10.23;;;6.15;;
35602;SDS011;21725;50.836;4.368;2022-09-01T06:58:55;14.38;;;5.95;;
35602;SDS011;21725;50.836;4.368;2022-09-01T07:01:22;16.92;;;5.80;;
35602;SDS011;21725;50.836;4.368;2022-09-01T07:03:51;10.80;;;5.32;;
35602;SDS011;21725;50.836;4.368;2022-09-01T07:06:21;10.50;;;5.00;;
35602;SDS011;21725;50.836;4.368;2022-09-01T07:08:56;9.52;;;4.78;;
35602;SDS011;21725;50.836;4.368;2022-09-01T07:11:25;8.85;;;5.70;;
35602;SDS011;21725;50.836;4.368;2022-09-01T07:13:58;20.88;;;5.60;;
35602;SDS011;21725;50.836;4.368;2022-09-01T07:16:28;9.80;;;4.72;;
35602;SDS011;21725;50.836;4.368;2022-09-01T07:18:58;14.23;;;6.63;;
35602;SDS011;21725;50.836;4.368;2022-09-01T07:21:29;7.95;;;4.60;;
35602;SDS011;21725;50.836;4.368;2022-09-01T07:23:58;11.65;;;5.57;;
35602;SDS011;21725;50.836;4.368;2022-09-01T07:26:27;12.25;;;4.65;;
35602;SDS011;21725;50.836;4.368;2022-09-01T07:28:53;10.60;;;5.32;;
35602;SDS011;21725;50.836;4.368;2022-09-01T07:31:21;15.73;;;4.65;;
35602;SDS011;21725;50.836;4.368;2022-09-01T07:33:48;9.95;;;4.90;;
35602;SDS011;21725;50.836;4.368;2022-09-01T07:36:16;9.93;;;4.53;;
35602;SDS011;21725;50.836;4.368;2022-09-01T07:38:43;14.35;;;4.95;;
35602;SDS011;21725;50.836;4.368;2022-09-01T07:41:09;11.23;;;5.05;;
35602;SDS011;21725;50.836;4.368;2022-09-01T07:43:37;12.80;;;4.18;;
35602;SDS011;21725;50.836;4.368;2022-09-01T07:46:06;11.77;;;6.15;;
35602;SDS011;21725;50.836;4.368;2022-09-01T07:48:32;9.38;;;4.70;;
35602;SDS011;21725;50.836;4.368;2022-09-01T07:50:58;10.85;;;4.65;;
35602;SDS011;21725;50.836;4.368;2022-09-01T07:53:29;10.65;;;4.20;;
35602;SDS011;21725;50.836;4.368;2022-09-01T07:55:58;10.85;;;5.07;;
35602;SDS011;21725;50.836;4.368;2022-09-01T07:58:26;9.70;;;5.07;;
35602;SDS011;21725;50.836;4.368;2022-09-01T08:00:55;7.38;;;4.35;;
35602;SDS011;21725;50.836;4.368;2022-09-01T08:03:22;10.85;;;4.22;;
35602;SDS011;21725;50.836;4.368;2022-09-01T08:06:11;8.13;;;3.80;;
35602;SDS011;21725;50.836;4.368;2022-09-01T08:08:40;9.73;;;4.20;;
35602;SDS011;21725;50.836;4.368;2022-09-01T08:11:08;12.40;;;5.65;;
35602;SDS011;21725;50.836;4.368;2022-09-01T08:13:39;5.22;;;3.35;;
35602;SDS011;21725;50.836;4.368;2022-09-01T08:16:05;8.00;;;3.50;;
35602;SDS011;21725;50.836;4.368;2022-09-01T08:18:35;11.20;;;4.18;;
35602;SDS011;21725;50.836;4.368;2022-09-01T08:21:05;12.35;;;4.25;;
35602;SDS011;21725;50.836;4.368;2022-09-01T08:23:31;8.85;;;4.47;;
35602;SDS011;21725;50.836;4.368;2022-09-01T08:25:57;9.32;;;3.47;;
35602;SDS011;21725;50.836;4.368;2022-09-01T08:28:23;6.13;;;3.63;;
35602;SDS011;21725;50.836;4.368;2022-09-01T08:30:49;8.82;;;3.30;;
35602;SDS011;21725;50.836;4.368;2022-09-01T08:33:14;6.55;;;3.83;;
35602;SDS011;21725;50.836;4.368;2022-09-01T08:35:41;9.88;;;3.63;;
35602;SDS011;21725;50.836;4.368;2022-09-01T08:38:08;7.70;;;4.50;;
35602;SDS011;21725;50.836;4.368;2022-09-01T08:40:35;8.13;;;3.15;;
35602;SDS011;21725;50.836;4.368;2022-09-01T08:45:56;6.07;;;3.25;;
35602;SDS011;21725;50.836;4.368;2022-09-01T08:48:34;7.38;;;2.92;;
35602;SDS011;21725;50.836;4.368;2022-09-01T08:51:07;8.68;;;3.20;;
35602;SDS011;21725;50.836;4.368;2022-09-01T08:53:42;9.10;;;3.15;;
35602;SDS011;21725;50.836;4.368;2022-09-01T08:56:13;13.18;;;3.20;;
35602;SDS011;21725;50.836;4.368;2022-09-01T08:58:42;9.07;;;3.20;;
35602;SDS011;21725;50.836;4.368;2022-09-01T09:01:10;21.02;;;3.15;;
35602;SDS011;21725;50.836;4.368;2022-09-01T09:06:32;5.82;;;3.60;;
35602;SDS011;21725;50.836;4.368;2022-09-01T09:09:05;5.18;;;2.90;;
35602;SDS011;21725;50.836;4.368;2022-09-01T09:11:50;8.95;;;4.85;;
35602;SDS011;21725;50.836;4.368;2022-09-01T09:17:26;9.05;;;3.42;;
35602;SDS011;21725;50.836;4.368;2022-09-01T09:19:56;8.07;;;2.90;;
35602;SDS011;21725;50.836;4.368;2022-09-01T09:22:21;7.90;;;2.90;;
35602;SDS011;21725;50.836;4.368;2022-09-01T09:24:55;5.30;;;2.85;;
35602;SDS011;21725;50.836;4.368;2022-09-01T09:27:42;6.72;;;3.22;;
35602;SDS011;21725;50.836;4.368;2022-09-01T09:30:11;10.50;;;4.95;;
35602;SDS011;21725;50.836;4.368;2022-09-01T09:32:43;7.50;;;3.22;;
35602;SDS011;21725;50.836;4.368;2022-09-01T09:35:32;9.10;;;3.50;;
35602;SDS011;21725;50.836;4.368;2022-09-01T09:43:27;6.95;;;3.72;;
35602;SDS011;21725;50.836;4.368;2022-09-01T09:51:53;6.70;;;2.95;;
35602;SDS011;21725;50.836;4.368;2022-09-01T09:57:00;6.43;;;2.75;;
35602;SDS011;21725;50.836;4.368;2022-09-01T09:59:35;8.45;;;2.95;;
35602;SDS011;21725;50.836;4.368;2022-09-01T10:28:22;7.22;;;2.60;;
35602;SDS011;21725;50.836;4.368;2022-09-01T10:30:49;12.05;;;3.10;;
35602;SDS011;21725;50.836;4.368;2022-09-01T10:33:18;6.85;;;2.13;;
35602;SDS011;21725;50.836;4.368;2022-09-01T10:35:46;5.22;;;2.58;;
35602;SDS011;21725;50.836;4.368;2022-09-01T10:38:16;4.80;;;2.58;;
35602;SDS011;21725;50.836;4.368;2022-09-01T10:40:46;6.57;;;2.38;;
35602;SDS011;21725;50.836;4.368;2022-09-01T10:48:43;6.57;;;2.67;;
35602;SDS011;21725;50.836;4.368;2022-09-01T10:53:38;5.15;;;2.75;;
35602;SDS011;21725;50.836;4.368;2022-09-01T11:04:04;7.45;;;2.20;;
35602;SDS011;21725;50.836;4.368;2022-09-01T11:12:38;9.35;;;1.90;;
35602;SDS011;21725;50.836;4.368;2022-09-01T11:18:25;4.20;;;2.38;;
35602;SDS011;21725;50.836;4.368;2022-09-01T11:20:53;6.28;;;2.42;;
35602;SDS011;21725;50.836;4.368;2022-09-01T11:23:24;5.18;;;2.42;;
35602;SDS011;21725;50.836;4.368;2022-09-01T11:26:00;10.48;;;2.67;;
35602;SDS011;21725;50.836;4.368;2022-09-01T11:28:46;8.25;;;2.53;;
35602;SDS011;21725;50.836;4.368;2022-09-01T11:31:17;4.18;;;1.95;;
35602;SDS011;21725;50.836;4.368;2022-09-01T11:33:58;3.95;;;2.53;;
35602;SDS011;21725;50.836;4.368;2022-09-01T11:44:29;3.10;;;1.92;;
35602;SDS011;21725;50.836;4.368;2022-09-01T11:47:06;5.05;;;2.70;;
35602;SDS011;21725;50.836;4.368;2022-09-01T11:49:36;3.50;;;2.20;;
35602;SDS011;21725;50.836;4.368;2022-09-01T11:52:12;5.18;;;2.08;;
35602;SDS011;21725;50.836;4.368;2022-09-01T11:54:40;4.28;;;2.33;;
35602;SDS011;21725;50.836;4.368;2022-09-01T11:57:17;4.90;;;2.40;;
35602;SDS011;21725;50.836;4.368;2022-09-01T11:59:53;6.10;;;3.05;;
35602;SDS011;21725;50.836;4.368;2022-09-01T12:02:22;5.95;;;2.30;;
35602;SDS011;21725;50.836;4.368;2022-09-01T12:04:55;7.63;;;2.42;;
35602;SDS011;21725;50.836;4.368;2022-09-01T12:07:34;6.88;;;2.88;;
35602;SDS011;21725;50.836;4.368;2022-09-01T12:10:03;4.18;;;2.30;;
35602;SDS011;21725;50.836;4.368;2022-09-01T12:12:38;4.25;;;2.42;;
35602;SDS011;21725;50.836;4.368;2022-09-01T12:15:17;4.47;;;2.03;;
35602;SDS011;21725;50.836;4.368;2022-09-01T12:17:44;7.00;;;2.00;;
35602;SDS011;21725;50.836;4.368;2022-09-01T12:20:23;5.63;;;2.70;;
35602;SDS011;21725;50.836;4.368;2022-09-01T12:22:49;5.15;;;2.10;;
35602;SDS011;21725;50.836;4.368;2022-09-01T12:25:22;6.28;;;2.80;;
35602;SDS011;21725;50.836;4.368;2022-09-01T12:27:49;5.05;;;2.55;;
35602;SDS011;21725;50.836;4.368;2022-09-01T12:30:19;3.70;;;2.42;;
35602;SDS011;21725;50.836;4.368;2022-09-01T12:32:48;8.98;;;3.42;;
35602;SDS011;21725;50.836;4.368;2022-09-01T12:35:16;6.05;;;2.33;;
35602;SDS011;21725;50.836;4.368;2022-09-01T12:37:46;3.92;;;2.58;;
35602;SDS011;21725;50.836;4.368;2022-09-01T12:40:22;5.07;;;2.17;;
35602;SDS011;21725;50.836;4.368;2022-09-01T12:42:57;5.97;;;2.35;;
35602;SDS011;21725;50.836;4.368;2022-09-01T12:45:37;5.10;;;1.90;;
35602;SDS011;21725;50.836;4.368;2022-09-01T12:48:27;3.10;;;2.20;;
35602;SDS011;21725;50.836;4.368;2022-09-01T12:51:02;3.88;;;2.20;;
35602;SDS011;21725;50.836;4.368;2022-09-01T12:53:48;5.53;;;2.40;;
35602;SDS011;21725;50.836;4.368;2022-09-01T12:56:34;3.80;;;2.30;;
35602;SDS011;21725;50.836;4.368;2022-09-01T12:59:11;4.15;;;2.50;;
35602;SDS011;21725;50.836;4.368;2022-09-01T13:01:48;5.95;;;2.28;;
35602;SDS011;21725;50.836;4.368;2022-09-01T13:06:39;6.13;;;2.45;;
35602;SDS011;21725;50.836;4.368;2022-09-01T13:09:05;7.32;;;2.50;;
35602;SDS011;21725;50.836;4.368;2022-09-01T13:11:31;3.47;;;2.10;;
35602;SDS011;21725;50.836;4.368;2022-09-01T13:13:59;4.15;;;2.25;;
35602;SDS011;21725;50.836;4.368;2022-09-01T13:16:25;8.35;;;2.30;;
35602;SDS011;21725;50.836;4.368;2022-09-01T13:18:51;4.10;;;2.60;;
35602;SDS011;21725;50.836;4.368;2022-09-01T13:21:16;3.60;;;1.95;;
35602;SDS011;21725;50.836;4.368;2022-09-01T13:23:42;5.68;;;2.30;;
35602;SDS011;21725;50.836;4.368;2022-09-01T13:26:08;3.83;;;2.30;;
35602;SDS011;21725;50.836;4.368;2022-09-01T13:28:35;5.45;;;2.47;;
35602;SDS011;21725;50.836;4.368;2022-09-01T13:31:01;4.30;;;2.10;;
35602;SDS011;21725;50.836;4.368;2022-09-01T13:33:30;5.85;;;1.75;;
35602;SDS011;21725;50.836;4.368;2022-09-01T13:35:57;4.80;;;2.05;;
35602;SDS011;21725;50.836;4.368;2022-09-01T13:38:23;3.05;;;2.10;;
35602;SDS011;21725;50.836;4.368;2022-09-01T13:40:49;5.80;;;2.35;;
35602;SDS011;21725;50.836;4.368;2022-09-01T13:43:16;3.95;;;2.35;;
35602;SDS011;21725;50.836;4.368;2022-09-01T13:45:44;5.68;;;3.83;;
35602;SDS011;21725;50.836;4.368;2022-09-01T13:48:11;6.63;;;2.60;;
35602;SDS011;21725;50.836;4.368;2022-09-01T13:50:37;7.93;;;3.05;;
35602;SDS011;21725;50.836;4.368;2022-09-01T13:53:04;5.30;;;2.45;;
35602;SDS011;21725;50.836;4.368;2022-09-01T13:55:31;4.03;;;2.20;;
35602;SDS011;21725;50.836;4.368;2022-09-01T13:57:59;3.28;;;2.25;;
35602;SDS011;21725;50.836;4.368;2022-09-01T14:00:30;7.65;;;3.13;;
35602;SDS011;21725;50.836;4.368;2022-09-01T14:03:02;6.97;;;2.75;;
35602;SDS011;21725;50.836;4.368;2022-09-01T14:05:33;5.22;;;2.30;;
35602;SDS011;21725;50.836;4.368;2022-09-01T14:08:04;9.25;;;2.50;;
35602;SDS011;21725;50.836;4.368;2022-09-01T14:10:32;5.63;;;2.17;;
35602;SDS011;21725;50.836;4.368;2022-09-01T14:13:01;3.15;;;1.98;;
35602;SDS011;21725;50.836;4.368;2022-09-01T14:15:27;6.57;;;1.85;;
35602;SDS011;21725;50.836;4.368;2022-09-01T14:17:53;3.90;;;2.13;;
35602;SDS011;21725;50.836;4.368;2022-09-01T14:20:25;3.55;;;1.83;;
35602;SDS011;21725;50.836;4.368;2022-09-01T14:22:53;6.30;;;2.38;;
35602;SDS011;21725;50.836;4.368;2022-09-01T14:25:20;6.68;;;2.55;;
35602;SDS011;21725;50.836;4.368;2022-09-01T14:27:46;5.38;;;2.67;;
35602;SDS011;21725;50.836;4.368;2022-09-01T14:30:18;3.42;;;2.08;;
35602;SDS011;21725;50.836;4.368;2022-09-01T14:32:46;4.85;;;2.40;;
35602;SDS011;21725;50.836;4.368;2022-09-01T14:35:12;4.95;;;2.30;;
35602;SDS011;21725;50.836;4.368;2022-09-01T14:37:41;4.03;;;2.25;;
35602;SDS011;21725;50.836;4.368;2022-09-01T14:40:09;7.07;;;2.05;;
35602;SDS011;21725;50.836;4.368;2022-09-01T14:42:39;3.90;;;2.25;;
35602;SDS011;21725;50.836;4.368;2022-09-01T14:45:11;5.13;;;2.72;;
35602;SDS011;21725;50.836;4.368;2022-09-01T14:47:39;3.60;;;2.25;;
35602;SDS011;21725;50.836;4.368;2022-09-01T14:50:05;5.07;;;2.33;;
35602;SDS011;21725;50.836;4.368;2022-09-01T14:52:32;2.45;;;1.88;;
35602;SDS011;21725;50.836;4.368;2022-09-01T14:54:58;5.43;;;2.22;;
35602;SDS011;21725;50.836;4.368;2022-09-01T14:57:26;5.00;;;2.45;;
35602;SDS011;21725;50.836;4.368;2022-09-01T14:59:52;3.60;;;2.17;;
35602;SDS011;21725;50.836;4.368;2022-09-01T15:02:18;3.15;;;2.03;;
35602;SDS011;21725;50.836;4.368;2022-09-01T15:04:43;4.07;;;2.20;;
35602;SDS011;21725;50.836;4.368;2022-09-01T15:07:09;10.38;;;2.78;;
35602;SDS011;21725;50.836;4.368;2022-09-01T15:09:37;3.42;;;2.08;;
35602;SDS011;21725;50.836;4.368;2022-09-01T15:12:03;3.85;;;1.75;;
35602;SDS011;21725;50.836;4.368;2022-09-01T15:14:30;2.72;;;1.77;;
35602;SDS011;21725;50.836;4.368;2022-09-01T15:16:56;4.20;;;1.80;;
35602;SDS011;21725;50.836;4.368;2022-09-01T15:19:22;6.80;;;2.35;;
35602;SDS011;21725;50.836;4.368;2022-09-01T15:21:48;2.83;;;1.95;;
35602;SDS011;21725;50.836;4.368;2022-09-01T15:24:14;3.92;;;2.05;;
35602;SDS011;21725;50.836;4.368;2022-09-01T15:26:41;3.95;;;2.10;;
35602;SDS011;21725;50.836;4.368;2022-09-01T15:29:08;3.88;;;1.83;;
35602;SDS011;21725;50.836;4.368;2022-09-01T15:31:39;4.68;;;2.08;;
35602;SDS011;21725;50.836;4.368;2022-09-01T15:34:09;3.33;;;2.13;;
35602;SDS011;21725;50.836;4.368;2022-09-01T15:36:35;6.93;;;1.80;;
35602;SDS011;21725;50.836;4.368;2022-09-01T15:39:07;8.45;;;1.88;;
35602;SDS011;21725;50.836;4.368;2022-09-01T15:41:35;5.93;;;2.63;;
35602;SDS011;21725;50.836;4.368;2022-09-01T15:44:02;10.18;;;2.47;;
35602;SDS011;21725;50.836;4.368;2022-09-01T15:46:30;7.53;;;2.97;;
35602;SDS011;21725;50.836;4.368;2022-09-01T15:48:58;5.20;;;2.17;;
35602;SDS011;21725;50.836;4.368;2022-09-01T15:53:55;5.63;;;2.15;;
35602;SDS011;21725;50.836;4.368;2022-09-01T15:56:23;4.43;;;2.42;;
35602;SDS011;21725;50.836;4.368;2022-09-01T15:58:50;5.75;;;2.03;;
35602;SDS011;21725;50.836;4.368;2022-09-01T16:01:16;6.57;;;2.20;;
35602;SDS011;21725;50.836;4.368;2022-09-01T16:03:43;4.13;;;1.90;;
35602;SDS011;21725;50.836;4.368;2022-09-01T16:32:09;3.22;;;2.38;;
35602;SDS011;21725;50.836;4.368;2022-09-01T16:34:41;5.80;;;2.70;;
35602;SDS011;21725;50.836;4.368;2022-09-01T16:37:19;5.43;;;2.33;;
35602;SDS011;21725;50.836;4.368;2022-09-01T16:39:47;3.90;;;2.17;;
35602;SDS011;21725;50.836;4.368;2022-09-01T16:47:53;5.32;;;2.38;;
35602;SDS011;21725;50.836;4.368;2022-09-01T17:03:57;3.10;;;2.00;;
35602;SDS011;21725;50.836;4.368;2022-09-01T17:15:08;4.05;;;2.08;;
35602;SDS011;21725;50.836;4.368;2022-09-01T17:20:33;5.10;;;1.80;;
35602;SDS011;21725;50.836;4.368;2022-09-01T17:23:06;3.53;;;1.88;;
35602;SDS011;21725;50.836;4.368;2022-09-01T17:25:54;9.60;;;2.30;;
35602;SDS011;21725;50.836;4.368;2022-09-01T17:28:26;5.05;;;2.28;;
35602;SDS011;21725;50.836;4.368;2022-09-01T17:31:10;7.53;;;2.35;;
35602;SDS011;21725;50.836;4.368;2022-09-01T17:33:58;4.55;;;2.20;;
35602;SDS011;21725;50.836;4.368;2022-09-01T17:36:37;6.93;;;2.95;;
35602;SDS011;21725;50.836;4.368;2022-09-01T17:42:42;4.25;;;2.15;;
35602;SDS011;21725;50.836;4.368;2022-09-01T17:50:40;3.13;;;2.03;;
35602;SDS011;21725;50.836;4.368;2022-09-01T17:53:12;5.95;;;2.40;;
35602;SDS011;21725;50.836;4.368;2022-09-01T17:56:01;6.15;;;2.38;;
35602;SDS011;21725;50.836;4.368;2022-09-01T17:58:43;5.50;;;2.20;;
35602;SDS011;21725;50.836;4.368;2022-09-01T18:01:16;6.78;;;2.58;;
35602;SDS011;21725;50.836;4.368;2022-09-01T18:10:10;4.63;;;2.35;;
35602;SDS011;21725;50.836;4.368;2022-09-01T18:12:42;7.22;;;2.75;;
35602;SDS011;21725;50.836;4.368;2022-09-01T18:15:21;6.95;;;2.85;;
35602;SDS011;21725;50.836;4.368;2022-09-01T18:21:01;7.07;;;2.73;;